Aeroporto :
LOGIN :

Iscrizione | Disclaimer

   EN    FR    IT 

 










Sommario :    VFR   VFR Marginale   IFR   IFR Intensivo   IFR Molto Intensivo
Visibilità : 
Base nubi : 
>= 8 km
>= 3000ft
5 / 8 km
1000 / 3000 ft
1500m / 5 km
500 / 1000 ft
800 / 1500m
200 / 500 ft
< 800m
< 200 ft
Simboli :   Temporali  Nebbia  Neve Forte  Precipitazioni Forti  Vento > 20 kt
SIGMETs :   Varie  Temporali  Ghiacco  Turbolenza  Onda orograficha  Ceneri Vulcaniche






- Altitudine del aeroporto : 3 ft
- Codice IATA : DHR


EHKD - Den Helder De Kooy

ULTIMO METAR :
  • 190755Z AUTO 36010KT 320V030 9999 NCD 06/01 Q1037 BLU 36010KT 9999 FEW025

METARs OBSOLETI :
  • 190725Z AUTO 36009KT 320V040 9999 FEW040 06/02 Q1036 BLU 36010KT 9999 FEW025
  • 190655Z AUTO 36009KT 310V030 9999 NCD 06/02 Q1035 BLU 35010KT 9999 FEW025
  • 190625Z AUTO 36009KT 310V040 9999 SCT052 06/02 Q1035 BLU 35010KT 9999 FEW025 TEMPO FEW012 SCT020CB
  • 190555Z AUTO 35009KT 310V040 9999 FEW015CB 06/03 Q1034 BLU 35010KT 9999 FEW025 TEMPO FEW012 SCT020CB
  • 190534Z AUTO 36009KT 320V040 9999 FEW025 06/03 Q1034 BLU 35010KT 9999 SCT025 TEMPO FEW012 SCT020CB
  • 190525Z AUTO 36009KT 310V030 9999 FEW025 06/02 Q1033 BLU 35010KT 9999 SCT025 TEMPO FEW012 SCT020CB

TAF TAF EHKD
Valido dal 19 a 06 ore il 19 a 18 ore UTC


190509Z 1906/1918 35008KT 9999 SCT025
PROB30
TEMPO 1906/1914 02010G22KT FEW012 SCT020CB



MetMap, La meteo Aeronautica in un colpo d'occhio ! - Copyright ORBIFLY Dicembre 2007 - Disclaimer

ORBIFLY MET'MAP TEAM :

Programmazione e sviluppo : Alexandra Zaïnal
Concezione : Baudouin d'Aumeries
Aiuto per la programmazione : Marc-Olivier Méhu
Supporto tecnico e logistico : Manuel Goepfert
Aiuto per la traduzione : Arnaldo La Scala

Contatto : metmap@orbifly.com




FONTI E CREDITI :

   NOAA